• Join FlightAware (Why Join?)
  • Login
  • US Flag 
10:25AM EDT


 

Airport Tracker/Info


-or-


 

Live Flight TrackerFlight Track Log ✈ AFR65 ✈ 27-May-2013 ✈ KLAX - LFPG / CDG

Flight Track Log - Related Links

Times and Time Zones

All times are in EDT time to prevent confusion due to time zone crossing. See the AFR65 flight status page for this flight to view local times or setup timezone preferences in your user account.

Time Position Orientation Groundspeed Altitude Reporting Facility
EDT Latitude Longitude Course Direction KTS MPH feet Rate Location/Type
07:07PM 33.9500 -118.4500 248° West 152 175 800  Level Southern California TRACON
07:08PM 33.9333 -118.5000 248° West 171 197 2,000 1,080 Climbing Southern California TRACON
07:09PM 33.9333 -118.5667 270° West 255 293 3,000 1,800 Climbing Southern California TRACON
07:10PM 33.9000 -118.6500 244° Southwest 276 318 5,700 2,340 Climbing Southern California TRACON
07:11PM 33.8283 -118.6225 162° South 293 337 8,000 2,160 Climbing Los Angeles Center
07:12PM 33.8597 -118.5261 69° East 288 331 10,500 1,380 Climbing Los Angeles Center
07:13PM 33.9169 -118.4536 46° Northeast 329 379 11,200 1,080 Climbing Los Angeles Center
07:14PM 33.9958 -118.3236 54° Northeast 394 453 13,000 1,980 Climbing Los Angeles Center
07:15PM 34.0753 -118.1828 56° Northeast 417 480 15,400 2,100 Climbing Los Angeles Center
07:16PM 34.1444 -118.0597 56° Northeast 438 504 17,400 1,800 Climbing Los Angeles Center
07:18PM 34.2147 -117.9353 56° Northeast 447 514 19,200 1,680 Climbing Los Angeles Center
07:19PM 34.2947 -117.8136 51° Northeast 461 531 20,900 1,620 Climbing Los Angeles Center
07:20PM 34.3786 -117.6917 50° Northeast 471 542 22,600 1,620 Climbing Los Angeles Center
07:21PM 34.4664 -117.5639 50° Northeast 477 549 24,300 1,440 Climbing Los Angeles Center
07:22PM 34.5536 -117.4378 50° Northeast 489 563 25,600 1,380 Climbing Los Angeles Center
07:23PM 34.6600 -117.2831 50° Northeast 501 577 27,200 1,440 Climbing Los Angeles Center
07:24PM 34.7492 -117.1519 50° Northeast 506 582 28,600 1,500 Climbing Los Angeles Center
07:25PM 34.8375 -117.0222 50° Northeast 506 582 30,400 1,440 Climbing Los Angeles Center
07:26PM 34.9069 -116.9203 50° Northeast 502 578 31,600 1,320 Climbing Los Angeles Center
07:27PM 35.0106 -116.7689 50° Northeast 494 568 33,200 1,440 Climbing Los Angeles Center
07:28PM 35.1133 -116.6172 50° Northeast 489 563 34,600 1,200 Climbing Los Angeles Center
07:29PM 35.1961 -116.4925 51° Northeast 481 554 35,700 780 Climbing Los Angeles Center
07:30PM 35.2806 -116.3689 50° Northeast 475 547 36,300 480 Climbing Los Angeles Center
07:31PM 35.3650 -116.2442 50° Northeast 476 548 36,800 300 Climbing Los Angeles Center
07:32PM 35.4483 -116.1156 51° Northeast 482 555 37,000 60 Climbing Los Angeles Center
07:33PM 35.5539 -115.9614 50° Northeast 491 565 37,000  Level Los Angeles Center
07:34PM 35.6308 -115.8439 51° Northeast 487 560 37,000  Level Los Angeles Center
07:35PM 35.7328 -115.6892 51° Northeast 488 562 37,000  Level Los Angeles Center
07:36PM 35.8181 -115.5589 51° Northeast 489 563 37,000  Level Los Angeles Center
07:37PM 35.9033 -115.4292 51° Northeast 489 563 37,000  Level Los Angeles Center
07:38PM 35.9889 -115.2989 51° Northeast 491 565 37,000  Level Los Angeles Center
07:39PM 36.0722 -115.1692 51° Northeast 487 560 37,000  Level Los Angeles Center
07:40PM 36.1853 -115.0261 46° Northeast 490 564 37,000  Level Los Angeles Center
07:41PM 36.2797 -114.9044 46° Northeast 493 567 37,000  Level Los Angeles Center
07:42PM 36.3739 -114.7836 46° Northeast 491 565 37,000  Level Los Angeles Center
07:43PM 36.4489 -114.6864 46° Northeast 490 564 37,000  Level Los Angeles Center
07:44PM 36.5619 -114.5372 47° Northeast 494 568 37,000  Level Los Angeles Center
07:45PM 36.6553 -114.4139 47° Northeast 492 566 37,000  Level Los Angeles Center
07:47PM 36.7708 -114.2703 45° Northeast 491 565 37,000  Level Los Angeles Center
07:48PM 36.8847 -114.1806 32° Northeast 484 557 37,000  Level Los Angeles Center
07:49PM 36.9997 -114.0922 32° Northeast 485 558 37,000  Level Los Angeles Center
07:50PM 37.1172 -114.0089 29° Northeast 486 559 37,000  Level Los Angeles Center
07:51PM 37.2444 -113.9506 20° North 484 557 37,000  Level Los Angeles Center
07:52PM 37.3767 -113.8808 23° Northeast 486 559 37,000  Level Los Angeles Center
07:53PM 37.5039 -113.8139 23° Northeast 490 564 37,000  Level Los Angeles Center
07:54PM 37.6561 -113.7336 23° Northeast 492 566 37,000  Level Los Angeles Center
07:55PM 37.7833 -113.6653 23° Northeast 493 567 37,000  Level Los Angeles Center
07:56PM 37.8850 -113.6128 22° Northeast 492 566 37,000  Level Salt Lake Center
07:57PM 37.9928 -113.5033 39° Northeast 500 575 37,000  Level Salt Lake Center
07:58PM 38.0908 -113.3750 46° Northeast 503 579 37,000  Level Salt Lake Center
07:59PM 38.1897 -113.2433 46° Northeast 509 586 37,000  Level Salt Lake Center
08:00PM 38.2869 -113.1133 46° Northeast 507 583 37,000  Level Salt Lake Center
08:01PM 38.3858 -112.9836 46° Northeast 508 585 37,000  Level Salt Lake Center
08:02PM 38.5114 -112.8414 42° Northeast 503 579 37,000  Level Salt Lake Center
08:03PM 38.6144 -112.7189 43° Northeast 505 581 37,000  Level Salt Lake Center
08:04PM 38.7178 -112.5975 42° Northeast 504 580 37,000  Level Salt Lake Center
08:05PM 38.8222 -112.4767 42° Northeast 505 581 37,000  Level Salt Lake Center
08:06PM 38.9261 -112.3539 43° Northeast 507 583 37,000  Level Salt Lake Center
08:07PM 39.0294 -112.2306 43° Northeast 506 582 37,000  Level Salt Lake Center
08:08PM 39.1325 -112.1069 43° Northeast 507 583 37,000  Level Salt Lake Center
08:09PM 39.2458 -111.9725 43° Northeast 506 582 37,000  Level Salt Lake Center
08:10PM 39.3492 -111.8503 42° Northeast 505 581 37,000  Level Salt Lake Center
08:11PM 39.4500 -111.7256 44° Northeast 505 581 37,000  Level Salt Lake Center
08:12PM 39.5525 -111.6028 43° Northeast 504 580 37,000  Level Salt Lake Center
08:13PM 39.6533 -111.4803 43° Northeast 500 575 37,000  Level Salt Lake Center
08:14PM 39.7739 -111.3336 43° Northeast 497 572 37,000  Level Salt Lake Center
08:15PM 39.8764 -111.2061 44° Northeast 507 583 37,000  Level Salt Lake Center
08:16PM 39.9739 -111.0842 44° Northeast 508 585 37,000  Level Salt Lake Center
08:17PM 40.0806 -110.9556 43° Northeast 508 585 37,000  Level Salt Lake Center
08:18PM 40.1864 -110.8225 44° Northeast 503 579 37,000  Level Salt Lake Center
08:19PM 40.2836 -110.7017 43° Northeast 503 579 37,000  Level Salt Lake Center
08:20PM 40.3947 -110.5600 44° Northeast 500 575 37,000  Level Salt Lake Center
08:21PM 40.4906 -110.4392 44° Northeast 499 574 37,000  Level Salt Lake Center
08:22PM 40.6036 -110.2983 43° Northeast 499 574 37,000  Level Salt Lake Center
08:23PM 40.6997 -110.1753 44° Northeast 500 575 37,000  Level Salt Lake Center
08:24PM 40.7958 -110.0511 44° Northeast 502 578 37,000  Level Salt Lake Center
08:25PM 40.9067 -109.9089 44° Northeast 505 581 37,000  Level Salt Lake Center
08:27PM 41.0833 -109.6800 44° Northeast 503 579 37,000  Level Denver Center
08:27PM 41.1144 -109.6383 45° Northeast 503 579 37,000  Level Salt Lake Center
08:28PM 41.2108 -109.5144 44° Northeast 504 580 37,000  Level Salt Lake Center
08:29PM 41.3064 -109.3897 44° Northeast 504 580 37,000  Level Salt Lake Center
08:31PM 41.4183 -109.2428 45° Northeast 501 577 37,000  Level Salt Lake Center
08:32PM 41.5214 -109.1089 44° Northeast 519 597 37,000  Level Salt Lake Center
08:33PM 41.6128 -108.9789 47° Northeast 499 574 37,000  Level Salt Lake Center
08:34PM 41.7058 -108.8122 53° Northeast 500 575 37,000  Level Salt Lake Center
08:35PM 41.7881 -108.6703 52° Northeast 502 578 37,000  Level Salt Lake Center
08:36PM 41.8681 -108.5267 53° Northeast 503 579 37,000  Level Salt Lake Center
08:37PM 41.9636 -108.3603 52° Northeast 504 580 37,000  Level Salt Lake Center
08:38PM 42.0453 -108.2178 52° Northeast 504 580 37,000  Level Salt Lake Center
08:39PM 42.1356 -108.0472 54° Northeast 502 578 37,000  Level Salt Lake Center
08:40PM 42.2167 -107.9014 53° Northeast 508 585 37,000  Level Salt Lake Center
08:41PM 42.3100 -107.7336 53° Northeast 503 579 37,000  Level Salt Lake Center
08:42PM 42.3892 -107.5872 54° Northeast 505 581 37,000  Level Salt Lake Center
08:43PM 42.4567 -107.4636 53° Northeast 508 585 37,000  Level Denver Center
08:44PM 42.5642 -107.2669 53° Northeast 513 590 37,000  Level Salt Lake Center
08:45PM 42.6444 -107.1181 54° Northeast 513 590 37,000  Level Salt Lake Center
08:46PM 42.7056 -107.0028 54° Northeast 511 588 37,000  Level Denver Center
08:47PM 42.8000 -106.8267 54° Northeast 516 594 37,000  Level Denver Center
08:48PM 42.8814 -106.6744 54° Northeast 518 596 37,000  Level Denver Center
08:49PM 42.9769 -106.4944 54° Northeast 524 603 37,000  Level Denver Center
08:50PM 43.0578 -106.3394 54° Northeast 524 603 37,000  Level Denver Center
08:51PM 43.1381 -106.1822 55° Northeast 524 603 37,000  Level Denver Center
08:52PM 43.2225 -105.9939 58° Northeast 520 598 37,000  Level Denver Center
08:53PM 43.2978 -105.8347 57° Northeast 518 596 37,000  Level Denver Center
08:54PM 43.3836 -105.6475 58° Northeast 518 596 37,000  Level Denver Center
08:55PM 43.4575 -105.4892 57° Northeast 513 590 37,000  Level Denver Center
08:56PM 43.5447 -105.3447 50° Northeast 513 590 37,000  Level Denver Center
08:57PM 43.6517 -105.1867 47° Northeast 505 581 37,000  Level Denver Center
08:58PM 43.7428 -105.0481 48° Northeast 507 583 37,000  Level Denver Center
08:59PM 43.8714 -104.9247 35° Northeast 503 579 37,000  Level Denver Center
09:00PM 43.9878 -104.8281 31° Northeast 507 583 37,000  Level Denver Center
09:01PM 44.1083 -104.7328 30° Northeast 517 595 37,000  Level Denver Center
09:02PM 44.2739 -104.6064 29° Northeast 529 609 37,000  Level Denver Center
09:03PM 44.4192 -104.4964 28° Northeast 531 611 37,000  Level Denver Center
09:04PM 44.5444 -104.4003 29° Northeast 533 613 37,000  Level Denver Center
09:05PM 44.6719 -104.3058 28° Northeast 539 620 37,000  Level Denver Center
09:06PM 44.8197 -104.1897 29° Northeast 544 626 37,000  Level Denver Center
09:07PM 44.9461 -104.0869 30° Northeast 547 629 37,000  Level Denver Center
09:08PM 45.0822 -103.9422 37° Northeast 543 625 37,000  Level Salt Lake Center
09:10PM 45.2211 -103.7958 37° Northeast 531 611 37,000  Level Salt Lake Center
09:11PM 45.3419 -103.6814 34° Northeast 526 605 37,000  Level Salt Lake Center
09:12PM 45.4650 -103.5675 33° Northeast 527 606 37,000  Level Salt Lake Center
09:13PM 45.5892 -103.4539 33° Northeast 532 612 37,000  Level Salt Lake Center
09:14PM 45.7119 -103.3375 33° Northeast 533 613 37,000  Level Salt Lake Center
09:15PM 45.8603 -103.2061 32° Northeast 523 602 37,000  Level Minneapolis Center
09:16PM 45.9833 -103.0950 32° Northeast 523 602 37,000  Level Minneapolis Center
09:17PM 46.0958 -102.9669 38° Northeast 515 593 37,000  Level Minneapolis Center
09:18PM 46.2014 -102.8297 42° Northeast 515 593 37,000  Level Minneapolis Center
09:19PM 46.3078 -102.6897 42° Northeast 522 601 37,000  Level Minneapolis Center
09:20PM 46.4147 -102.5472 43° Northeast 524 603 37,000  Level Minneapolis Center
09:21PM 46.5317 -102.3647 47° Northeast 514 592 37,000  Level Minneapolis Center
09:22PM 46.6272 -102.2122 48° Northeast 514 592 37,000  Level Minneapolis Center
09:23PM 46.7200 -102.0553 49° Northeast 513 590 37,000  Level Minneapolis Center
09:24PM 46.8058 -101.8906 53° Northeast 514 592 37,000  Level Minneapolis Center
09:25PM 46.8961 -101.6917 56° Northeast 511 588 37,000  Level Minneapolis Center
09:26PM 46.9681 -101.5111 60° Northeast 512 589 37,000  Level Minneapolis Center
09:27PM 47.0389 -101.3722 53° Northeast 517 595 37,000  Level Minneapolis Center
09:28PM 47.1431 -101.1628 54° Northeast 518 596 37,000  Level Minneapolis Center
09:29PM 47.2247 -100.9975 54° Northeast 519 597 37,000  Level Minneapolis Center
09:30PM 47.3069 -100.8306 54° Northeast 520 598 37,000  Level Minneapolis Center
09:31PM 47.3917 -100.6572 54° Northeast 521 600 37,000  Level Minneapolis Center
09:32PM 47.4764 -100.4831 54° Northeast 524 603 37,000  Level Minneapolis Center
09:33PM 47.5608 -100.3075 54° Northeast 525 604 37,000  Level Minneapolis Center
09:34PM 47.6458 -100.1306 54° Northeast 526 605 37,000  Level Minneapolis Center
09:35PM 47.7461 -99.9200 55° Northeast 520 598 37,000  Level Minneapolis Center
09:36PM 47.8292 -99.7444 55° Northeast 519 597 37,000  Level Minneapolis Center
09:37PM 47.9119 -99.5681 55° Northeast 520 598 37,000  Level Minneapolis Center
09:38PM 47.9783 -99.4264 55° Northeast 520 598 37,000  Level Minneapolis Center
09:39PM 48.0775 -99.2125 55° Northeast 523 602 37,000  Level Minneapolis Center
09:40PM 48.1611 -99.0311 55° Northeast 529 609 37,000  Level Minneapolis Center
09:41PM 48.2447 -98.8481 56° Northeast 531 611 37,000  Level Minneapolis Center
09:43PM 48.4000 -98.4833 57° Northeast 530 610 37,000  Level Winnipeg Center
09:45PM 48.5089 -98.2631 53° Northeast 524 603 37,000  Level Minneapolis Center
09:46PM 48.5922 -98.0758 56° Northeast 518 596 37,000  Level Minneapolis Center
09:47PM 48.6694 -97.9008 56° Northeast 516 594 37,000  Level Minneapolis Center
09:48PM 48.7492 -97.7197 56° Northeast 516 594 37,000  Level Minneapolis Center
09:49PM 48.8464 -97.4964 56° Northeast 518 596 37,000  Level Minneapolis Center
09:50PM 48.9231 -97.3192 57° Northeast 518 596 37,000  Level Minneapolis Center
09:51PM 49.0017 -97.1358 57° Northeast 519 597 37,000  Level Minneapolis Center
09:51PM 49.0333 -97.0167 68° East 520 598 37,000  Level Winnipeg Center
09:52PM 49.1167 -96.8167 57° Northeast 520 598 37,000  Level Winnipeg Center
09:53PM 49.2000 -96.6333 55° Northeast 520 598 37,000  Level Winnipeg Center
09:54PM 49.2667 -96.4500 61° Northeast 510 587 37,000  Level Winnipeg Center
09:55PM 49.3500 -96.2667 55° Northeast 500 575 37,000  Level Winnipeg Center
09:56PM 49.4167 -96.1000 58° Northeast 500 575 37,000  Level Winnipeg Center
09:57PM 49.4833 -95.9167 61° Northeast 500 575 37,000  Level Winnipeg Center
09:58PM 49.5667 -95.7333 55° Northeast 500 575 37,000  Level Winnipeg Center
09:59PM 49.6333 -95.5500 61° Northeast 500 575 37,000  Level Winnipeg Center
10:00PM 49.7167 -95.3667 55° Northeast 500 575 37,000  Level Winnipeg Center
10:01PM 49.7833 -95.2000 58° Northeast 500 575 37,000  Level Winnipeg Center
10:02PM 49.8667 -95.0000 57° Northeast 500 575 37,000  Level Winnipeg Center
10:03PM 49.9333 -94.8333 58° Northeast 500 575 37,000  Level Winnipeg Center
10:04PM 50.0000 -94.6167 64° Northeast 500 575 37,000  Level Winnipeg Center
10:05PM 50.0667 -94.4667 55° Northeast 500 575 37,000  Level Winnipeg Center
10:06PM 50.1500 -94.2833 55° Northeast 510 587 37,000  Level Winnipeg Center
10:07PM 50.2167 -94.0667 64° Northeast 510 587 37,000  Level Winnipeg Center
10:08PM 50.2833 -93.9000 58° Northeast 510 587 37,000  Level Winnipeg Center
10:09PM 50.3667 -93.6833 59° Northeast 500 575 37,000  Level Winnipeg Center
10:10PM 50.4333 -93.5000 60° Northeast 500 575 37,000  Level Winnipeg Center
10:11PM 50.5000 -93.3000 62° Northeast 500 575 37,000  Level Winnipeg Center
10:12PM 50.5667 -93.1167 60° Northeast 500 575 37,000  Level Winnipeg Center
10:13PM 50.6500 -92.9333 54° Northeast 510 587 37,000  Level Winnipeg Center
10:14PM 50.7000 -92.7333 68° East 510 587 37,000  Level Winnipeg Center
10:15PM 50.7833 -92.5500 54° Northeast 500 575 37,000  Level Winnipeg Center
10:16PM 50.8500 -92.3500 62° Northeast 510 587 37,000  Level Winnipeg Center
10:17PM 50.9167 -92.1500 62° Northeast 510 587 37,000  Level Winnipeg Center
10:18PM 50.9833 -91.9667 60° Northeast 510 587 37,000  Level Winnipeg Center
10:19PM 51.0500 -91.7667 62° Northeast 510 587 37,000  Level Winnipeg Center
10:20PM 51.1167 -91.5667 62° Northeast 510 587 37,000  Level Winnipeg Center
10:21PM 51.2000 -91.3500 58° Northeast 510 587 37,000  Level Winnipeg Center
10:22PM 51.2500 -91.1500 68° East 510 587 37,000  Level Winnipeg Center
10:23PM 51.3333 -90.9667 54° Northeast 510 587 37,000  Level Winnipeg Center
10:24PM 51.4000 -90.7667 62° Northeast 510 587 37,000  Level Winnipeg Center
10:25PM 51.4667 -90.5667 62° Northeast 510 587 37,000  Level Winnipeg Center
10:26PM 51.5333 -90.3667 62° Northeast 510 587 37,000  Level Winnipeg Center
10:27PM 51.5833 -90.1667 68° East 500 575 37,000  Level Winnipeg Center
10:28PM 51.6667 -89.9667 56° Northeast 510 587 37,000  Level Winnipeg Center
10:29PM 51.7500 -89.7667 56° Northeast 500 575 37,000  Level Winnipeg Center
10:30PM 51.8167 -89.6167 54° Northeast 500 575 37,000  Level Winnipeg Center
10:31PM 51.9167 -89.4167 51° Northeast 500 575 37,000  Level Winnipeg Center
10:32PM 52.0000 -89.2333 54° Northeast 500 575 37,000  Level Winnipeg Center
10:33PM 52.0833 -89.0833 48° Northeast 500 575 37,000  Level Winnipeg Center
10:34PM 52.1667 -88.8667 58° Northeast 500 575 37,000  Level Winnipeg Center
10:35PM 52.2500 -88.7167 48° Northeast 500 575 37,000  Level Winnipeg Center
10:36PM 52.3333 -88.5167 56° Northeast 500 575 37,000  Level Winnipeg Center
10:37PM 52.4333 -88.3500 45° Northeast 500 575 37,000  Level Winnipeg Center
10:38PM 52.5167 -88.1500 56° Northeast 500 575 37,000  Level Winnipeg Center
10:39PM 52.5833 -87.9667 59° Northeast 510 587 37,000  Level Winnipeg Center
10:40PM 52.6667 -87.7833 53° Northeast 500 575 37,000  Level Winnipeg Center
10:41PM 52.7500 -87.6000 53° Northeast 500 575 37,000  Level Winnipeg Center
10:42PM 52.8333 -87.4167 53° Northeast 500 575 37,000  Level Winnipeg Center
10:43PM 52.9167 -87.2333 53° Northeast 500 575 37,000  Level Winnipeg Center
10:44PM 53.0000 -87.0333 55° Northeast 500 575 37,000  Level Winnipeg Center
10:45PM 53.0833 -86.8500 53° Northeast 500 575 37,000  Level Winnipeg Center
10:46PM 53.1667 -86.6667 53° Northeast 500 575 37,000  Level Winnipeg Center
10:47PM 53.2333 -86.4833 59° Northeast 500 575 37,000  Level Winnipeg Center
10:48PM 53.3167 -86.2833 55° Northeast 500 575 37,000  Level Winnipeg Center
10:49PM 53.4000 -86.1000 53° Northeast 500 575 37,000  Level Winnipeg Center
10:50PM 53.4833 -85.9000 55° Northeast 500 575 37,000  Level Winnipeg Center
10:51PM 53.5667 -85.7167 53° Northeast 500 575 37,000  Level Winnipeg Center
10:52PM 53.6333 -85.5167 61° Northeast 500 575 37,000  Level Winnipeg Center
10:53PM 53.7167 -85.3333 52° Northeast 500 575 37,000  Level Winnipeg Center
10:54PM 53.8000 -85.1333 55° Northeast 500 575 37,000  Level Winnipeg Center
10:55PM 53.8833 -84.9333 55° Northeast 500 575 37,000  Level Winnipeg Center
10:56PM 53.9667 -84.7333 55° Northeast 510 587 37,000  Level Winnipeg Center
10:57PM 54.0500 -84.5500 52° Northeast 510 587 37,000  Level Winnipeg Center
10:59PM 54.1000 -84.3000 71° East 510 587 37,000  Level Edmonton Center
11:00PM 54.1833 -84.0833 57° Northeast 510 587 37,000  Level Edmonton Center
11:01PM 54.2500 -83.8833 60° Northeast 510 587 37,000  Level Edmonton Center
11:02PM 54.3333 -83.7000 52° Northeast 520 598 37,000  Level Edmonton Center
11:03PM 54.4167 -83.4667 58° Northeast 510 587 37,000  Level Edmonton Center
11:04PM 54.4833 -83.2667 60° Northeast 510 587 37,000  Level Edmonton Center
11:05PM 54.5667 -83.0667 54° Northeast 510 587 37,000  Level Edmonton Center
11:06PM 54.6333 -82.8500 62° Northeast 510 587 37,000  Level Edmonton Center
11:07PM 54.7167 -82.6500 54° Northeast 500 575 37,000  Level Edmonton Center
11:07PM 54.8000 -82.4833 49° Northeast 500 575 37,000  Level Winnipeg Center
11:08PM 54.8667 -82.2833 60° Northeast 500 575 37,000  Level Winnipeg Center
11:09PM 54.9500 -82.0833 54° Northeast 500 575 37,000  Level Winnipeg Center
11:10PM 55.0333 -81.8667 56° Northeast 500 575 37,000  Level Winnipeg Center
11:11PM 55.0833 -81.6667 66° East 500 575 37,000  Level Winnipeg Center
11:12PM 55.1667 -81.4667 54° Northeast 500 575 37,000  Level Winnipeg Center
11:13PM 55.2333 -81.2500 62° Northeast 500 575 37,000  Level Winnipeg Center
11:14PM 55.3000 -81.0500 60° Northeast 500 575 37,000  Level Winnipeg Center
11:15PM 55.3667 -80.8333 61° Northeast 490 564 37,000  Level Winnipeg Center
11:16PM 55.4500 -80.6500 51° Northeast 500 575 37,000  Level Winnipeg Center
11:17PM 55.5167 -80.4500 59° Northeast 500 575 37,000  Level Winnipeg Center
11:18PM 55.5833 -80.2333 61° Northeast 500 575 37,000  Level Winnipeg Center
11:19PM 55.6500 -80.0000 63° Northeast 500 575 37,000  Level Winnipeg Center
11:20PM 55.7167 -79.7833 61° Northeast 500 575 37,000  Level Winnipeg Center
11:21PM 55.8000 -79.5667 56° Northeast 500 575 37,000  Level Winnipeg Center
11:22PM 55.8500 -79.3500 68° East 500 575 37,000  Level Winnipeg Center
11:23PM 55.9167 -79.1333 61° Northeast 500 575 37,000  Level Winnipeg Center
11:24PM 55.9833 -78.9333 59° Northeast 500 575 37,000  Level Winnipeg Center
11:25PM 56.0500 -78.7167 61° Northeast 500 575 37,000  Level Winnipeg Center
11:26PM 56.1000 -78.5000 67° East 500 575 37,000  Level Winnipeg Center
11:27PM 56.1667 -78.2833 61° Northeast 500 575 37,000  Level Winnipeg Center
11:29PM 56.2167 -78.0000 72° East 500 575 37,000  Level Edmonton Center
11:30PM 56.2833 -77.7500 64° Northeast 500 575 37,000  Level Edmonton Center
11:31PM 56.3500 -77.5500 59° Northeast 500 575 37,000  Level Edmonton Center
11:32PM 56.4000 -77.3333 67° East 500 575 37,000  Level Edmonton Center
11:33PM 56.4500 -77.1000 69° East 490 564 37,000  Level Edmonton Center
11:34PM 56.5333 -76.8667 57° Northeast 490 564 37,000  Level Edmonton Center
11:35PM 56.5833 -76.6667 66° East 490 564 37,000  Level Edmonton Center
11:36PM 56.6333 -76.4167 70° East 500 575 37,000  Level Edmonton Center
11:37PM 56.7000 -76.2000 61° Northeast 500 575 37,000  Level Edmonton Center
11:38PM 56.8333 -75.8167 57° Northeast 500 575 37,000  Level Winnipeg Center
11:39PM 56.8833 -75.5833 68° East 500 575 37,000  Level Winnipeg Center
11:41PM 56.9495 -75.3390 64° Northeast  Level FlightAware Approximate
11:42PM 57.0333 -75.2167 64° Northeast 490 564 37,000  Level Gander Center
11:43PM 57.1000 -74.9833 62° Northeast 480 552 37,000  Level Gander Center
11:44PM 57.1333 -74.7500 75° East 500 575 37,000  Level Gander Center
11:45PM 57.2167 -74.5167 57° Northeast 480 552 37,000  Level Gander Center
11:46PM 57.2667 -74.3000 67° East 490 564 37,000  Level Gander Center
11:47PM 57.3167 -74.0500 70° East 490 564 37,000  Level Gander Center
11:48PM 57.3667 -73.8333 67° East 500 575 37,000  Level Gander Center
11:49PM 57.4167 -73.6000 68° East 500 575 37,000  Level Gander Center
11:50PM 57.4833 -73.3667 62° Northeast 500 575 37,000  Level Gander Center
11:50PM 57.5167 -73.1500 74° East 490 564 37,000  Level Montreal Center
11:51PM 57.5833 -72.8833 65° Northeast 490 564 37,000  Level Montreal Center
11:52PM 57.6333 -72.6667 67° East 490 564 37,000  Level Montreal Center
11:53PM 57.6833 -72.4333 68° East 500 575 37,000  Level Montreal Center
11:54PM 57.7333 -72.1833 69° East 490 564 37,000  Level Montreal Center
11:55PM 57.7833 -71.9167 71° East 500 575 37,000  Level Montreal Center
11:56PM 57.8333 -71.7000 66° East 490 564 37,000  Level Montreal Center
11:57PM 57.8833 -71.4667 68° East 490 564 37,000  Level Montreal Center
11:58PM 57.9333 -71.2000 70° East 490 564 37,000  Level Montreal Center
11:59PM 57.9833 -70.9833 66° East 490 564 37,000  Level Montreal Center
12:00AM 58.0333 -70.7167 70° East 490 564 37,000  Level Montreal Center
12:01AM 58.0667 -70.4833 75° East 490 564 37,000  Level Montreal Center
12:02AM 58.1333 -70.2333 63° Northeast 490 564 37,000  Level Montreal Center
12:03AM 58.1833 -69.9667 70° East 490 564 37,000  Level Montreal Center
12:04AM 58.2167 -69.7333 75° East 490 564 37,000  Level Montreal Center
12:05AM 58.2667 -69.5000 68° East 500 575 37,000  Level Montreal Center
12:06AM 58.3167 -69.2333 70° East 500 575 37,000  Level Montreal Center
12:07AM 58.3500 -69.0000 75° East 500 575 37,000  Level Montreal Center
12:08AM 58.4000 -68.7333 70° East 500 575 37,000  Level Montreal Center
12:09AM 58.4333 -68.4667 76° East 500 575 37,000  Level Montreal Center
12:10AM 58.5000 -68.2333 61° Northeast 500 575 37,000  Level Montreal Center
12:11AM 58.5333 -67.9667 76° East 500 575 37,000  Level Montreal Center
12:12AM 58.5833 -67.7167 69° East 500 575 37,000  Level Montreal Center
12:13AM 58.6000 -67.6833 46° Northeast 500 575 37,000  Level Gander Center
12:13AM 58.6167 -67.4500 82° East 500 575 37,000  Level Montreal Center
12:14AM 58.6667 -67.2167 68° East 500 575 37,000  Level Montreal Center
12:15AM 58.6667 -67.1500 90° East 500 575 37,000  Level Gander Center
12:15AM 58.7000 -66.9500 72° East 500 575 37,000  Level Montreal Center
12:16AM 58.7667 -66.7000 63° Northeast 500 575 37,000  Level Montreal Center
12:17AM 58.8167 -66.4667 67° East 500 575 37,000  Level Montreal Center
12:18AM 58.8667 -66.2167 69° East 500 575 37,000  Level Montreal Center
12:19AM 58.9167 -65.9667 69° East 500 575 37,000  Level Montreal Center
12:20AM 58.9333 -65.9333 46° Northeast 500 575 37,000  Level Gander Center
12:21AM 59.0000 -65.6500 65° Northeast 510 587 37,000  Level Gander Center
12:22AM 59.0333 -65.4000 75° East 500 575 37,000  Level Gander Center
12:23AM 59.1000 -65.1333 64° Northeast 500 575 37,000  Level Gander Center
12:24AM 59.1500 -64.8833 69° East 500 575 37,000 300 Level Gander Center
12:25AM 59.2000 -64.6333 69° East 500 575 37,600 600 Climbing Gander Center
12:26AM 59.2500 -64.3833 69° East 510 587 38,300 600 Climbing Gander Center
12:26AM 59.2833 -64.1833 72° East 510 587 38,600 420 Climbing Montreal Center
12:27AM 59.3167 -63.9333 75° East 510 587 39,000 180 Climbing Montreal Center
12:28AM 59.3667 -63.6833 68° East 510 587 39,000  Level Montreal Center
12:29AM 59.4000 -63.6000 52° Northeast 510 587 39,000  Level Gander Center
12:30AM 59.4500 -63.3500 68° East 510 587 39,000  Level Gander Center
12:31AM 59.4833 -63.0833 76° East 510 587 39,000  Level Gander Center
12:32AM 59.5333 -62.8833 64° Northeast 510 587 39,000  Level Gander Center
12:33AM 59.5833 -62.6333 68° East 510 587 39,000  Level Gander Center
12:33AM 59.6167 -62.3500 77° East 510 587 39,000  Level Montreal Center
12:34AM 59.6500 -62.1000 75° East 510 587 39,000  Level Montreal Center
12:35AM 59.6833 -62.0333 45° Northeast 510 587 39,000  Level Gander Center
12:36AM 59.7167 -61.7500 77° East 510 587 39,000  Level Gander Center
12:37AM 59.7500 -61.5500 72° East 520 598 39,000  Level Gander Center
12:38AM 59.7667 -61.2500 84° East 510 587 39,000  Level Gander Center
12:39AM 59.8167 -60.9833 69° East 510 587 39,000  Level Gander Center
12:39AM 59.8500 -60.7167 76° East 510 587 39,000  Level Montreal Center
12:40AM 59.8833 -60.4667 75° East 520 598 39,000  Level Montreal Center
12:41AM 59.9167 -60.3833 51° Northeast 510 587 39,000  Level Gander Center
12:42AM 59.9500 -60.1167 76° East 520 598 39,000  Level Gander Center
12:43AM 59.9833 -59.8500 76° East 520 598 39,000  Level Gander Center
12:44AM 59.9833 -59.5500 90° East 520 598 39,000  Level Gander Center
12:45AM 60.0000 -59.2500 84° East 520 598 39,000  Level Gander Center
12:46AM 60.0167 -58.9833 83° East 520 598 39,000  Level Gander Center
12:46AM 60.0167 -58.7500 90° East 520 598 39,000  Level Montreal Center
12:47AM 60.0167 -58.4500 90° East 520 598 39,000  Level Montreal Center
12:48AM 60.0167 -58.3833 90° East 520 598 39,000  Level Gander Center
12:49AM 60.0333 -58.1167 83° East 520 598 39,000  Level Gander Center
12:50AM 60.0333 -57.8167 90° East 520 598 39,000  Level Gander Center
12:51AM 60.0500 -57.5167 84° East 520 598 39,000  Level Gander Center
12:52AM 60.0667 -57.2500 83° East 520 598 39,000  Level Gander Center
12:53AM 60.0500 -56.9500 96° East 520 598 39,000  Level Gander Center
12:54AM 60.0500 -56.6833 90° East 520 598 39,000  Level Gander Center
12:55AM 60.0667 -56.3833 84° East 520 598 39,000  Level Gander Center
12:56AM 60.0667 -56.0833 90° East 520 598 39,000  Level Gander Center
12:57AM 60.0667 -55.7833 90° East 530 610 39,000  Level Gander Center
12:58AM 60.0667 -55.5167 90° East 530 610 39,000  Level Gander Center
12:59AM 60.0667 -55.2833 90° East 530 610 39,000  Level Gander Center
01:00AM 60.0667 -54.9833 90° East 520 598 39,000  Level Gander Center
01:01AM 60.0667 -54.6333 90° East 520 598 39,000  Level Gander Center
01:02AM 60.0667 -54.4167 90° East 520 598 39,000  Level Gander Center
01:03AM 60.0667 -54.1000 90° East 520 598 39,000  Level Gander Center
01:04AM 60.0667 -53.8000 90° East 520 598 39,000  Level Gander Center
01:05AM 60.0667 -53.4333 90° East 520 598 39,000  Level Gander Center
01:06AM 60.0667 -53.1667 90° East 520 598 39,000  Level Gander Center
01:07AM 60.0667 -52.8667 90° East 520 598 39,000  Level Gander Center
01:08AM 60.0500 -52.5667 96° East 520 598 39,000  Level Gander Center
01:09AM 60.0500 -52.3000 90° East 520 598 39,000  Level Gander Center
01:10AM 60.0333 -52.0000 96° East 520 598 39,000  Level Gander Center
01:11AM 60.0333 -51.7000 90° East 520 598 39,000  Level Gander Center
01:12AM 60.0167 -51.4333 97° East 520 598 39,000  Level Gander Center
01:13AM 60.0167 -51.1333 90° East 520 598 39,000  Level Gander Center
01:14AM 60.0000 -50.8333 96° East 520 598 39,000  Level Gander Center
01:15AM 60.0000 -50.5333 90° East 530 610 39,000  Level Gander Center
01:16AM 59.9833 -50.2833 97° East 530 610 39,000  Level Gander Center
01:17AM 59.9667 -49.9833 96° East 530 610 39,000  Level Gander Center
01:18AM 59.9833 -49.7000 83° East 540 621 39,000  Level Gander Center
01:19AM 59.9833 -49.4000 90° East 540 621 39,000  Level Gander Center
01:20AM 60.0000 -49.1000 84° East 540 621 39,000  Level Gander Center
01:21AM 60.0000 -48.8167 90° East 530 610 39,000  Level Gander Center
01:22AM 60.0167 -48.5167 84° East 530 610 39,000  Level Gander Center
01:23AM 60.0167 -48.2167 90° East 530 610 39,000  Level Gander Center
01:24AM 60.0333 -47.9000 84° East 540 621 39,000  Level Gander Center
01:25AM 60.0333 -47.6000 90° East 540 621 39,000  Level Gander Center
01:26AM 60.0500 -47.3167 83° East 540 621 39,000  Level Gander Center
01:27AM 60.0500 -47.0167 90° East 540 621 39,000  Level Gander Center
01:28AM 60.0500 -46.7167 90° East 540 621 39,000  Level Gander Center
01:29AM 60.0500 -46.4333 90° East 540 621 39,000  Level Gander Center
01:30AM 60.0500 -46.1333 90° East 540 621 39,000  Level Gander Center
01:31AM 60.0500 -45.8333 90° East 540 621 39,000  Level Gander Center
01:32AM 60.0500 -45.5500 90° East 540 621 39,000  Level Gander Center
01:33AM 60.0667 -45.2333 84° East 540 621 39,000  Level Gander Center
01:35AM 60.0667 -44.6667 90° East 530 610 39,000  Level Gander Center
01:36AM 60.0667 -44.3500 90° East 530 610 39,000  Level Gander Center
01:37AM 60.0667 -44.0500 90° East 530 610 39,000  Level Gander Center
01:38AM 60.0667 -43.7833 90° East 540 621 39,000  Level Gander Center
01:39AM 60.0500 -43.4667 96° East 540 621 39,000  Level Gander Center
01:40AM 60.0500 -43.2000 90° East 540 621 39,000  Level Gander Center
01:41AM 60.0500 -42.9000 90° East 540 621 39,000  Level Gander Center
01:42AM 60.0333 -42.6000 96° East 540 621 39,000  Level Gander Center
01:43AM 60.0333 -42.2833 90° East 540 621 39,000  Level Gander Center
01:44AM 60.0333 -41.9833 90° East 540 621 39,000  Level Gander Center
01:45AM 60.0333 -41.7000 90° East 540 621 39,000  Level Gander Center
01:47AM 60.0167 -41.1000 93° East 540 621 39,000  Level Gander Center
01:48AM 60.0000 -40.8000 96° East 540 621 39,000  Level Gander Center
01:49AM 59.9833 -40.5000 96° East 540 621 39,000  Level Gander Center
01:50AM 59.9833 -40.2167 90° East 540 621 39,000  Level Gander Center
01:52AM 59.9500 -39.6167 96° East 540 621 39,000  Level Gander Center
01:53AM 59.9333 -39.3167 96° East 540 621 39,000  Level Gander Center
01:55AM 59.8833 -38.7333 99° East 540 621 39,000  Level Gander Center
01:56AM 59.8667 -38.4333 96° East 540 621 39,000  Level Gander Center
01:57AM 59.8333 -38.1333 102° East 540 621 39,000  Level Gander Center
01:59AM 59.8000 -37.5333 96° East 550 633 39,000  Level Gander Center
02:01AM 59.7500 -36.9833 100° East 540 621 39,000  Level Gander Center
02:03AM 59.7132 -36.5265 99° East  Level FlightAware Approximate
02:04AM 59.6667 -36.1000 99° East 540 621 39,000  Level Gander Center
02:05AM 59.6500 -35.8167 97° East 550 633 39,000  Level Gander Center
02:06AM 59.6333 -35.5167 96° East 550 633 39,000  Level Gander Center
02:07AM 59.5833 -35.2333 109° East 540 621 39,000  Level Gander Center
02:08AM 59.5667 -34.9333 96° East 550 633 39,000  Level Gander Center
02:10AM 59.5232 -34.4814 101° East  Level FlightAware Approximate
02:17AM 59.3280 -32.6332 101° East  Level FlightAware Approximate
02:18AM 59.2980 -32.3710 103° East  Level FlightAware Approximate
02:19AM 59.2674 -32.1092 103° East  Level FlightAware Approximate
02:20AM 59.2364 -31.8479 103° East  Level FlightAware Approximate
02:21AM 59.2048 -31.5871 103° East  Level FlightAware Approximate
02:22AM 59.1727 -31.3267 103° East  Level FlightAware Approximate
02:23AM 59.1401 -31.0669 104° East  Level FlightAware Approximate
02:24AM 59.1069 -30.8075 104° East  Level FlightAware Approximate
02:25AM 59.0733 -30.5487 104° East  Level FlightAware Approximate
02:26AM 59.0391 -30.2903 104° East  Level FlightAware Approximate
02:27AM 59.0044 -30.0325 105° East  Level FlightAware Approximate
02:28AM 58.9861 -29.7683 97° East  Level FlightAware Approximate
02:29AM 58.9697 -29.5041 97° East  Level FlightAware Approximate
02:30AM 58.9528 -29.2401 97° East  Level FlightAware Approximate
02:31AM 58.9354 -28.9764 97° East  Level FlightAware Approximate
02:32AM 58.9174 -28.7129 97° East  Level FlightAware Approximate
02:33AM 58.8989 -28.4498 98° East  Level FlightAware Approximate
02:34AM 58.8799 -28.1869 98° East  Level FlightAware Approximate
02:35AM 58.8603 -27.9243 98° East  Level FlightAware Approximate
02:36AM 58.8402 -27.6620 98° East  Level FlightAware Approximate
02:37AM 58.8195 -27.4000 99° East  Level FlightAware Approximate
02:38AM 58.7984 -27.1384 99° East  Level FlightAware Approximate
02:39AM 58.7767 -26.8770 99° East  Level FlightAware Approximate
02:40AM 58.7544 -26.6160 99° East  Level FlightAware Approximate
02:41AM 58.7317 -26.3554 99° East  Level FlightAware Approximate
02:42AM 58.7084 -26.0950 100° East  Level FlightAware Approximate
02:43AM 58.6846 -25.8350 100° East  Level FlightAware Approximate
02:44AM 58.6603 -25.5754 100° East  Level FlightAware Approximate
02:45AM 58.6354 -25.3162 100° East  Level FlightAware Approximate
02:46AM 58.6100 -25.0573 101° East  Level FlightAware Approximate
02:47AM 58.5841 -24.7988 101° East  Level FlightAware Approximate
02:48AM 58.5577 -24.5407 101° East  Level FlightAware Approximate
02:49AM 58.5308 -24.2830 101° East  Level FlightAware Approximate
02:50AM 58.5034 -24.0256 101° East  Level FlightAware Approximate
02:51AM 58.4754 -23.7687 102° East  Level FlightAware Approximate
02:52AM 58.4469 -23.5122 102° East  Level FlightAware Approximate
02:53AM 58.4180 -23.2561 102° East  Level FlightAware Approximate
02:54AM 58.3885 -23.0005 102° East  Level FlightAware Approximate
02:55AM 58.3585 -22.7452 103° East  Level FlightAware Approximate
02:56AM 58.3280 -22.4904 103° East  Level FlightAware Approximate
02:57AM 58.2970 -22.2361 103° East  Level FlightAware Approximate
02:58AM 58.2655 -21.9822 103° East  Level FlightAware Approximate
02:59AM 58.2335 -21.7288 103° East  Level FlightAware Approximate
03:00AM 58.2009 -21.4758 104° East  Level FlightAware Approximate
03:01AM 58.1679 -21.2232 104° East  Level FlightAware Approximate
03:02AM 58.1344 -20.9712 104° East  Level FlightAware Approximate
03:03AM 58.1004 -20.7196 104° East  Level FlightAware Approximate
03:04AM 58.0659 -20.4685 104° East  Level FlightAware Approximate
03:05AM 58.0309 -20.2179 105° East  Level FlightAware Approximate
03:06AM 57.9927 -19.9697 114° Southeast  Level FlightAware Approximate
03:07AM 57.9357 -19.7344 114° Southeast  Level FlightAware Approximate
03:08AM 57.8783 -19.5000 115° Southeast  Level FlightAware Approximate
03:09AM 57.8205 -19.2663 115° Southeast  Level FlightAware Approximate
03:10AM 57.7622 -19.0333 115° Southeast  Level FlightAware Approximate
03:11AM 57.7035 -18.8011 115° Southeast  Level FlightAware Approximate
03:12AM 57.6444 -18.5697 115° Southeast  Level FlightAware Approximate
03:13AM 57.5849 -18.3389 116° Southeast  Level FlightAware Approximate
03:14AM 57.5249 -18.1090 116° Southeast  Level FlightAware Approximate
03:15AM 57.4646 -17.8798 116° Southeast  Level FlightAware Approximate
03:16AM 57.4038 -17.6514 116° Southeast  Level FlightAware Approximate
03:17AM 57.3426 -17.4237 116° Southeast  Level FlightAware Approximate
03:18AM 57.2810 -17.1968 117° Southeast  Level FlightAware Approximate
03:19AM 57.2190 -16.9707 117° Southeast  Level FlightAware Approximate
03:20AM 57.1566 -16.7453 117° Southeast  Level FlightAware Approximate
03:21AM 57.0938 -16.5207 117° Southeast  Level FlightAware Approximate
03:22AM 57.0305 -16.2968 117° Southeast  Level FlightAware Approximate
03:23AM 56.9669 -16.0737 118° Southeast  Level FlightAware Approximate
03:24AM 56.9029 -15.8513 118° Southeast  Level FlightAware Approximate
03:25AM 56.8385 -15.6298 118° Southeast  Level FlightAware Approximate
03:26AM 56.7737 -15.4090 118° Southeast  Level FlightAware Approximate
03:27AM 56.7085 -15.1889 118° Southeast  Level FlightAware Approximate
03:28AM 56.6429 -14.9696 118° Southeast  Level FlightAware Approximate
03:29AM 56.5770 -14.7511 119° Southeast  Level FlightAware Approximate
03:30AM 56.5106 -14.5334 119° Southeast  Level FlightAware Approximate
03:31AM 56.4439 -14.3164 119° Southeast  Level FlightAware Approximate
03:32AM 56.3768 -14.1001 119° Southeast  Level FlightAware Approximate
03:33AM 56.3094 -13.8847 119° Southeast  Level FlightAware Approximate
03:34AM 56.2415 -13.6700 120° Southeast  Level FlightAware Approximate
03:35AM 56.1733 -13.4560 120° Southeast  Level FlightAware Approximate
03:36AM 56.1047 -13.2428 120° Southeast  Level FlightAware Approximate
03:37AM 56.0358 -13.0304 120° Southeast  Level FlightAware Approximate
03:38AM 55.9665 -12.8188 120° Southeast  Level FlightAware Approximate
03:39AM 55.8968 -12.6079 120° Southeast  Level FlightAware Approximate
03:40AM 55.8268 -12.3977 121° Southeast  Level FlightAware Approximate
03:41AM 55.7564 -12.1883 121° Southeast  Level FlightAware Approximate
03:42AM 55.6856 -11.9797 121° Southeast  Level FlightAware Approximate
03:43AM 55.6146 -11.7718 121° Southeast  Level FlightAware Approximate
03:44AM 55.5431 -11.5647 121° Southeast  Level FlightAware Approximate
03:45AM 55.4713 -11.3583 121° Southeast  Level FlightAware Approximate
03:46AM 55.3992 -11.1527 122° Southeast  Level FlightAware Approximate
03:47AM 55.3267 -10.9478 122° Southeast  Level FlightAware Approximate
03:48AM 55.2539 -10.7437 122° Southeast  Level FlightAware Approximate
03:49AM 55.1807 -10.5403 122° Southeast  Level FlightAware Approximate
03:50AM 55.1072 -10.3377 122° Southeast  Level FlightAware Approximate
03:51AM 55.0334 -10.1358 122° Southeast  Level FlightAware Approximate
03:52AM 54.9592 -9.9347 123° Southeast  Level FlightAware Approximate
03:53AM 54.8847 -9.7344 123° Southeast  Level FlightAware Approximate
03:53AM 54.1443 -8.9644 123° Southeast 494 568 39,000  Level FlightAware UK
03:54AM 54.1164 -8.9122 132° Southeast 494 568 39,000  Level FlightAware UK
03:54AM 54.0880 -8.8603 133° Southeast 496 571 39,000  Level FlightAware UK
03:54AM 54.0597 -8.8084 133° Southeast 494 568 39,000  Level FlightAware UK
03:55AM 54.0314 -8.7563 133° Southeast 496 571 39,000  Level FlightAware UK
03:55AM 54.0029 -8.7043 133° Southeast 494 568 39,000  Level FlightAware UK
03:55AM 53.9747 -8.6522 133° Southeast 496 571 39,000  Level FlightAware UK
03:55AM 53.9463 -8.6003 133° Southeast 496 571 39,000  Level FlightAware UK
03:56AM 53.9177 -8.5486 133° Southeast 498 573 39,000  Level FlightAware UK
03:56AM 53.8892 -8.4971 133° Southeast 498 573 39,000  Level FlightAware UK
03:56AM 53.8604 -8.4450 133° Southeast 496 571 39,000  Level FlightAware UK
03:57AM 53.8320 -8.3936 133° Southeast 498 573 39,000  Level FlightAware UK
03:57AM 53.8036 -8.3425 133° Southeast 496 571 39,000  Level FlightAware UK
03:57AM 53.7752 -8.2918 133° Southeast 496 571 39,000  Level FlightAware UK
03:58AM 53.7469 -8.2411 133° Southeast 496 571 39,000  Level FlightAware UK
03:58AM 53.7184 -8.1905 133° Southeast 496 571 39,000  Level FlightAware UK
03:58AM 53.6902 -8.1400 133° Southeast 494 568 39,000  Level FlightAware UK
03:58AM 53.6619 -8.0897 133° Southeast 492 566 39,000  Level FlightAware UK
03:59AM 53.6338 -8.0394 133° Southeast 492 566 39,000  Level FlightAware UK
03:59AM 53.6056 -7.9892 133° Southeast 492 566 39,000  Level FlightAware UK
03:59AM 53.5774 -7.9392 134° Southeast 494 568 39,000  Level FlightAware UK
04:00AM 53.5492 -7.8892 133° Southeast 494 568 39,000  Level FlightAware UK
04:00AM 53.5210 -7.8390 133° Southeast 494 568 39,000  Level FlightAware UK
04:00AM 53.4926 -7.7890 134° Southeast 490 564 39,000  Level FlightAware UK
04:01AM 53.4546 -7.7225 134° Southeast 494 568 39,000  Level FlightAware UK
04:01AM 53.4261 -7.6725 134° Southeast 494 568 39,000  Level FlightAware UK
04:01AM 53.3974 -7.6224 134° Southeast 496 571 39,000  Level FlightAware UK
04:02AM 53.3687 -7.5723 134° Southeast 496 571 39,000  Level FlightAware UK
04:02AM 53.3399 -7.5221 134° Southeast 498 573 39,000  Level FlightAware UK
04:02AM 53.3111 -7.4718 134° Southeast 498 573 39,000  Level FlightAware UK
04:02AM 53.2824 -7.4216 134° Southeast 496 571 39,000  Level FlightAware UK
04:03AM 53.2537 -7.3718 134° Southeast 496 571 39,000  Level FlightAware UK
04:03AM 53.2249 -7.3221 134° Southeast 496 571 39,000  Level FlightAware UK
04:03AM 53.1961 -7.2725 134° Southeast 496 571 39,000  Level FlightAware UK
04:04AM 53.1674 -7.2231 134° Southeast 494 568 39,000  Level FlightAware UK
04:04AM 53.1384 -7.1733 134° Southeast 492 566 39,000  Level FlightAware UK
04:04AM 53.1097 -7.1240 134° Southeast 494 568 39,000  Level FlightAware UK
04:05AM 53.0810 -7.0747 134° Southeast 498 573 39,000  Level FlightAware UK
04:05AM 53.0522 -7.0253 134° Southeast 498 573 39,000  Level FlightAware UK
04:05AM 53.0233 -6.9762 134° Southeast 500 575 39,000  Level FlightAware UK
04:05AM 52.9944 -6.9271 134° Southeast 498 573 39,000  Level FlightAware UK
04:06AM 52.9656 -6.8780 134° Southeast 498 573 39,000  Level FlightAware UK
04:06AM 52.9368 -6.8292 134° Southeast 496 571 39,000  Level FlightAware UK
04:06AM 52.9081 -6.7806 134° Southeast 496 571 39,000  Level FlightAware UK
04:07AM 52.8795 -6.7322 134° Southeast 496 571 39,000  Level FlightAware UK
04:07AM 52.8527 -6.6820 131° Southeast 494 568 39,000  Level FlightAware UK
04:07AM 52.8272 -6.6294 129° Southeast 494 568 39,000  Level FlightAware UK
04:08AM 52.8018 -6.5766 128° Southeast 496 571 39,000  Level FlightAware UK
04:08AM 52.7759 -6.5242 129° Southeast 496 571 39,000  Level FlightAware UK
04:08AM 52.7497 -6.4725 130° Southeast 494 568 39,000  Level FlightAware UK
04:08AM 52.7233 -6.4213 130° Southeast 494 568 39,000  Level FlightAware UK
04:09AM 52.6967 -6.3700 131° Southeast 496 571 39,000  Level FlightAware UK
04:09AM 52.6702 -6.3187 130° Southeast 496 571 39,000  Level FlightAware UK
04:09AM 52.6438 -6.2675 130° Southeast 494 568 39,000  Level FlightAware UK
04:10AM 52.6173 -6.2163 130° Southeast 492 566 39,000  Level FlightAware UK
04:10AM 52.5910 -6.1651 130° Southeast 496 571 39,000  Level FlightAware UK
04:10AM 52.5644 -6.1140 131° Southeast 498 573 39,000  Level FlightAware UK
04:11AM 52.5379 -6.0631 131° Southeast 498 573 39,000  Level FlightAware UK
04:11AM 52.5113 -6.0122 131° Southeast 498 573 39,000  Level FlightAware UK
04:11AM 52.4844 -5.9609 131° Southeast 496 571 39,000  Level FlightAware UK
04:11AM 52.4580 -5.9101 131° Southeast 496 571 39,000  Level FlightAware UK
04:12AM 52.4315 -5.8595 131° Southeast 494 568 39,000  Level FlightAware UK
04:12AM 52.3962 -5.7923 131° Southeast 496 571 39,000  Level FlightAware UK
04:12AM 52.3698 -5.7420 131° Southeast 494 568 39,000  Level FlightAware UK
04:13AM 52.3433 -5.6919 131° Southeast 496 571 39,000  Level FlightAware UK
04:13AM 52.3168 -5.6418 131° Southeast 492 566 39,000  Level FlightAware UK
04:13AM 52.2903 -5.5918 131° Southeast 494 568 39,000  Level FlightAware UK
04:14AM 52.2638 -5.5418 131° Southeast 496 571 39,000  Level FlightAware UK
04:14AM 52.2372 -5.4919 131° Southeast 498 573 39,000  Level FlightAware UK
04:14AM 52.1929 -5.4088 131° Southeast 498 573 39,000  Level FlightAware UK
04:15AM 52.1663 -5.3591 131° Southeast 496 571 39,000  Level FlightAware UK
04:15AM 52.1448 -5.3042 123° Southeast 488 562 39,000  Level FlightAware UK
04:15AM 52.1308 -5.2425 110° East 490 564 39,000  Level FlightAware UK
04:16AM 52.1207 -5.1784 104° East 494 568 39,000  Level FlightAware UK
04:16AM 52.1094 -5.1145 106° East 496 571 39,000  Level FlightAware UK
04:16AM 52.0976 -5.0509 107° East 496 571 39,000  Level FlightAware UK
04:17AM 52.0857 -4.9873 107° East 496 571 39,000  Level FlightAware UK
04:17AM 52.0738 -4.9232 107° East 498 573 39,000  Level FlightAware UK
04:17AM 52.0623 -4.8604 107° East 498 573 39,000  Level FlightAware UK
04:17AM 52.0506 -4.7970 107° East 494 568 39,000  Level FlightAware UK
04:18AM 52.0387 -4.7333 107° East 494 568 39,000  Level FlightAware UK
04:18AM 52.0269 -4.6703 107° East 494 568 39,000  Level FlightAware UK
04:18AM 52.0152 -4.6073 107° East 496 571 39,000  Level FlightAware UK
04:19AM 52.0034 -4.5443 107° East 496 571 39,000  Level FlightAware UK
04:19AM 51.9916 -4.4813 107° East 496 571 39,000  Level FlightAware UK
04:19AM 51.9797 -4.4183 107° East 494 568 39,000  Level FlightAware UK
04:20AM 51.9679 -4.3555 107° East 494 568 39,000  Level FlightAware UK
04:20AM 51.9560 -4.2927 107° East 494 568 39,000  Level FlightAware UK
04:20AM 51.9439 -4.2294 107° East 496 571 39,000  Level FlightAware UK
04:20AM 51.9319 -4.1667 107° East 498 573 39,000  Level FlightAware UK
04:21AM 51.9199 -4.1039 107° East 500 575 39,000  Level FlightAware UK
04:21AM 51.9078 -4.0407 107° East 500 575 39,000  Level FlightAware UK
04:21AM 51.8914 -3.9560 107° East 500 575 39,000  Level FlightAware UK
04:22AM 51.8789 -3.8916 107° East 500 575 39,000  Level FlightAware UK
04:22AM 51.8627 -3.8075 107° East 502 578 39,000  Level FlightAware UK
04:22AM 51.8501 -3.7433 107° East 500 575 39,000  Level FlightAware UK
04:23AM 51.8376 -3.6798 108° East 502 578 39,000  Level FlightAware UK
04:23AM 51.8168 -3.5738 108° East 506 582 39,000  Level FlightAware UK
04:24AM 51.7959 -3.4679 108° East 502 578 39,000  Level FlightAware UK
04:24AM 51.7790 -3.3834 108° East 502 578 39,000  Level FlightAware UK
04:24AM 51.7662 -3.3194 108° East 502 578 39,000  Level FlightAware UK
04:25AM 51.7537 -3.2562 108° East 502 578 39,000  Level FlightAware UK
04:25AM 51.7368 -3.1722 108° East 500 575 39,000  Level FlightAware UK
04:25AM 51.7241 -3.1094 108° East 500 575 39,000  Level FlightAware UK
04:26AM 51.7112 -3.0458 108° East 502 578 39,000  Level FlightAware UK
04:26AM 51.6984 -2.9830 108° East 502 578 39,000  Level FlightAware UK
04:26AM 51.6857 -2.9201 108° East 504 580 39,000  Level FlightAware UK
04:27AM 51.6729 -2.8572 108° East 504 580 39,000 -300 Level FlightAware UK
04:27AM 51.6554 -2.7735 109° East 504 580 38,800 -600 Descending FlightAware UK
04:27AM 51.6369 -2.7143 117° Southeast 502 578 38,600 -840 Descending FlightAware UK
04:28AM 51.6193 -2.6557 116° Southeast 502 578 38,300 -720 Descending FlightAware UK
04:28AM 51.5850 -2.5388 115° Southeast 502 578 38,000 -480 Descending FlightAware UK
04:29AM 51.5681 -2.4803 115° Southeast 502 578 37,900  Descending FlightAware UK
04:29AM 51.5337 -2.3627 115° Southeast 502 578 38,000 60 Climbing FlightAware UK
04:29AM 51.5164 -2.3044 115° Southeast 500 575 38,000  Level FlightAware UK
04:30AM 51.4991 -2.2464 116° Southeast 500 575 38,000  Level FlightAware UK
04:30AM 51.4819 -2.1885 116° Southeast 500 575 38,000  Level FlightAware UK
04:30AM 51.4589 -2.1115 116° Southeast 500 575 38,000  Level FlightAware UK
04:31AM 51.4010 -1.9182 116° Southeast 500 575 38,000  Level FlightAware UK
04:32AM 51.3836 -1.8605 116° Southeast 500 575 38,000  Level FlightAware UK
04:32AM 51.3661 -1.8027 116° Southeast 502 578 38,000  Level FlightAware UK
04:33AM 51.3252 -1.6679 116° Southeast 504 580 38,000  Level FlightAware UK
04:33AM 51.3075 -1.6096 116° Southeast 502 578 38,000 -360 Level FlightAware UK
04:33AM 51.2901 -1.5528 116° Southeast 500 575 37,800 -900 Descending FlightAware UK
04:34AM 51.2606 -1.4556 116° Southeast 502 578 37,300 -1,020 Descending FlightAware UK
04:34AM 51.2371 -1.3796 116° Southeast 502 578 36,900 -1,020 Descending FlightAware UK
04:35AM 51.2191 -1.3214 116° Southeast 504 580 36,600 -1,020 Descending FlightAware UK
04:35AM 51.2015 -1.2646 116° Southeast 502 578 36,300 -660 Descending FlightAware UK
04:36AM 51.1542 -1.1120 116° Southeast 502 578 35,900 -300 Descending FlightAware UK
04:36AM 51.1305 -1.0362 116° Southeast 500 575 36,000 120 Climbing FlightAware UK
04:36AM 51.1128 -0.9793 116° Southeast 502 578 36,000  Level FlightAware UK
04:37AM 51.0947 -0.9219 117° Southeast 498 573 36,000  Level FlightAware UK
04:37AM 51.0531 -0.7892 117° Southeast 500 575 36,000  Level FlightAware UK
04:38AM 51.0231 -0.7201 125° Southeast 500 575 36,000  Level FlightAware UK
04:38AM 50.9791 -0.6419 132° Southeast 500 575 36,000 -600 Level FlightAware UK
04:39AM 50.9351 -0.5645 132° Southeast 500 575 35,400 -1,380 Descending FlightAware UK
04:39AM 50.9083 -0.5167 132° Southeast 500 575 34,900 -1,500 Descending FlightAware UK
04:40AM 50.8467 -0.4052 131° Southeast 502 578 33,900 -1,500 Descending FlightAware UK
04:40AM 50.8217 -0.3587 130° Southeast 504 580 33,400 -1,500 Descending FlightAware UK
04:41AM 50.7801 -0.2818 130° Southeast 504 580 32,700 -1,500 Descending FlightAware UK
04:41AM 50.7556 -0.2380 132° Southeast 494 568 32,200 -1,500 Descending FlightAware UK
04:41AM 50.7313 -0.1955 132° Southeast 490 564 31,800 -1,440 Descending FlightAware UK
04:42AM 50.6994 -0.1410 133° Southeast 486 559 31,200 -1,440 Descending FlightAware UK
04:42AM 50.6757 -0.1000 132° Southeast 482 555 30,800 -1,140 Descending FlightAware UK
04:43AM 50.6082 0.0337 128° Southeast 488 562 29,900 -1,500 Descending FlightAware UK
04:44AM 50.5093 0.2974 120° Southeast 476 548 27,100 -1,740 Descending FlightAware UK
04:45AM 50.4908 0.3460 121° Southeast 474 545 26,700 -1,260 Descending FlightAware UK
04:45AM 50.4590 0.4247 122° Southeast 470 541 26,100 -1,020 Descending FlightAware UK
04:46AM 50.4331 0.4632 136° Southeast 472 543 25,900 -1,020 Descending FlightAware UK
04:46AM 50.4057 0.4997 140° Southeast 474 545 25,500 -1,140 Descending FlightAware UK
04:46AM 50.3611 0.5618 138° Southeast 470 541 25,000 -660 Descending FlightAware UK
04:47AM 50.3348 0.6001 137° Southeast 468 539 25,000  Level FlightAware UK
04:47AM 50.2645 0.6991 138° Southeast 468 539 25,000  Level FlightAware UK
04:48AM 50.2380 0.7361 138° Southeast 468 539 25,000 -540 Level FlightAware UK
04:48AM 50.1941 0.7977 138° Southeast 464 534 24,600 -900 Descending FlightAware UK
04:49AM 50.1675 0.8346 138° Southeast 462 532 24,300 -1,020 Descending FlightAware UK
04:49AM 50.1413 0.8713 138° Southeast 464 534 24,000 -480 Descending FlightAware UK
04:49AM 50.1062 0.9201 138° Southeast 462 532 24,000  Level FlightAware UK
04:50AM 50.0707 0.9692 138° Southeast 462 532 24,000 -420 Level FlightAware UK
04:50AM 50.0443 1.0057 138° Southeast 460 529 23,700 -1,080 Descending FlightAware UK
04:50AM 50.0094 1.0541 138° Southeast 458 527 23,300 -1,020 Descending FlightAware UK
04:51AM 49.9828 1.0912 138° Southeast 458 527 23,000 -1,020 Descending FlightAware UK
04:51AM 49.9565 1.1277 138° Southeast 454 522 22,700 -1,020 Descending FlightAware UK
04:52AM 49.8636 1.1845 158° South 446 513 21,800 -1,020 Descending FlightAware UK
04:52AM 49.8215 1.2067 161° South 444 511 21,400 -1,020 Descending FlightAware UK
04:53AM 49.7816 1.2371 154° Southeast 444 511 21,000 -1,020 Descending FlightAware UK
04:53AM 49.7517 1.2592 154° Southeast 442 509 20,700 -1,020 Descending FlightAware UK
04:53AM 49.7114 1.2865 156° South 440 506 20,300 -1,440 Descending FlightAware UK
04:54AM 49.6818 1.3071 156° South 434 499 19,700 -1,680 Descending FlightAware UK
04:54AM 49.6523 1.3275 156° South 434 499 19,300 -1,680 Descending FlightAware UK
04:55AM 49.5646 1.3882 156° South 424 488 17,700 -1,860 Descending FlightAware UK
04:55AM 49.5359 1.4081 156° South 420 483 17,100 -1,800 Descending FlightAware UK
04:56AM 49.4888 1.4409 156° South 416 479 16,300 -1,740 Descending FlightAware UK
04:57AM 49.3875 1.5103 156° South 400 460 14,400 -1,500 Descending FlightAware UK
04:57AM 49.3606 1.5289 156° South 388 447 14,200 -720 Descending FlightAware UK
04:57AM 49.3267 1.5520 156° South 376 433 13,900 -660 Descending FlightAware UK
04:58AM 49.3018 1.5893 136° Southeast 358 412 13,700 -660 Descending FlightAware UK
04:58AM 49.2968 1.6431 98° East 342 394 13,400 -1,020 Descending FlightAware UK
04:59AM 49.2948 1.6976 93° East 336 387 12,900 -1,500 Descending FlightAware UK
04:59AM 49.2920 1.7648 94° East 334 384 12,100 -1,500 Descending FlightAware UK
04:59AM 49.2898 1.8044 95° East 332 382 11,700 -1,440 Descending FlightAware UK
05:00AM 49.2875 1.8571 94° East 328 377 11,100 -1,020 Descending FlightAware UK
05:00AM 49.2855 1.8956 94° East 328 377 11,000 -60 Descending FlightAware UK
05:02AM 49.2857 2.1631 90° East 328 377 11,000  Level FlightAware UK
05:03AM 49.2677 2.2144 118° Southeast 328 377 11,000  Level FlightAware UK
05:05AM 49.0750 2.4125 135° Southeast  Level FlightAware Approximate
05:12AM 49.0000 2.5333 132° Southeast  Level FlightAware Approximate
05:13AM 49.0128 2.5500 132° Southeast  Level Estimated
05:14AM 49.0128 2.5500 132° Southeast  Level Estimated
05:15AM 49.0128 2.5500 132° Southeast  Level Estimated
05:16AM 49.0128 2.5500 132° Southeast  Level Estimated
05:17AM 49.0128 2.5500 132° Southeast  Level Estimated
05:18AM 49.0128 2.5500 132° Southeast  Level Estimated
05:19AM 49.0128 2.5500 132° Southeast  Level Estimated
05:20AM 49.0128 2.5500 132° Southeast  Level Estimated
05:21AM 49.0128 2.5500 132° Southeast  Level Estimated
05:22AM 49.0128 2.5500 132° Southeast  Level Estimated
05:23AM 49.0128 2.5500 132° Southeast  Level Estimated
05:24AM 49.0128 2.5500 132° Southeast  Level Estimated
05:25AM 49.0128 2.5500 132° Southeast  Level Estimated
05:26AM 49.0128 2.5500 132° Southeast  Level Estimated
05:27AM 49.0128 2.5500 132° Southeast  Level Estimated
05:28AM 49.0128 2.5500 132° Southeast  Level Estimated
05:29AM 49.0128 2.5500 132° Southeast  Level Estimated
05:30AM 49.0128 2.5500 132° Southeast  Level Estimated
05:31AM 49.0128 2.5500 132° Southeast  Level Estimated
05:32AM 49.0128 2.5500 132° Southeast  Level Estimated
05:33AM 49.0128 2.5500 132° Southeast  Level Estimated
05:34AM 49.0128 2.5500 132° Southeast  Level Estimated
05:35AM 49.0128 2.5500 132° Southeast  Level Estimated
05:36AM 49.0128 2.5500 132° Southeast  Level Estimated
05:37AM 49.0128 2.5500 132° Southeast  Level Estimated
05:38AM 49.0128 2.5500 132° Southeast  Level Estimated
05:39AM 49.0128 2.5500 132° Southeast  Level Estimated